createdAt,value
2022-12-19T00:01:35.738Z,101620.59
2022-12-19T00:04:08.201Z,101627.41
2022-12-19T00:06:37.067Z,101629.97
2022-12-19T00:09:03.659Z,101620.56
2022-12-19T00:11:30.313Z,101588.94
2022-12-19T00:13:57.295Z,101600.88
2022-12-19T00:16:27.120Z,101603.38
2022-12-19T00:18:55.690Z,101595.69
2022-12-19T00:21:24.863Z,101593.06
2022-12-19T00:23:52.562Z,101592.22
2022-12-19T00:26:24.505Z,101570.84
2022-12-19T00:28:54.117Z,101593.94
2022-12-19T00:31:22.536Z,101593.00
2022-12-19T00:33:49.706Z,101595.56
2022-12-19T00:36:22.819Z,101611.75
2022-12-19T00:38:51.499Z,101594.66
2022-12-19T00:41:21.208Z,101574.06
2022-12-19T00:43:57.781Z,101558.66
2022-12-19T00:46:25.228Z,101557.00
2022-12-19T00:48:51.716Z,101564.59
2022-12-19T00:51:23.993Z,101544.94
2022-12-19T00:53:51.338Z,101553.53
2022-12-19T00:56:21.519Z,101548.38
2022-12-19T00:58:48.539Z,101531.31
2022-12-19T01:01:21.423Z,101521.03
2022-12-19T01:04:18.682Z,101549.19
2022-12-19T01:06:34.835Z,101537.25
2022-12-19T01:09:01.409Z,101541.50
2022-12-19T01:11:46.547Z,101520.09
2022-12-19T01:14:20.818Z,101515.78
2022-12-19T01:16:49.635Z,101509.84
2022-12-19T01:19:16.189Z,101533.63
2022-12-19T01:21:42.765Z,101537.00
2022-12-19T01:24:09.614Z,101555.78
2022-12-19T01:26:36.101Z,101551.44
2022-12-19T01:29:02.563Z,101551.38
2022-12-19T01:31:29.014Z,101544.53
2022-12-19T01:33:55.529Z,101538.47
2022-12-19T01:36:21.950Z,101535.06
2022-12-19T01:38:48.368Z,101528.16
2022-12-19T01:41:14.856Z,101522.97
2022-12-19T01:44:06.135Z,101537.41
2022-12-19T01:46:42.177Z,101516.00
2022-12-19T01:49:26.244Z,101519.41
2022-12-19T01:51:55.243Z,101504.00
2022-12-19T01:54:27.003Z,101504.91
2022-12-19T01:56:57.329Z,101505.63
2022-12-19T01:59:37.848Z,101496.13
2022-12-19T02:02:12.997Z,101490.91
2022-12-19T02:04:41.700Z,101493.47
2022-12-19T02:07:15.574Z,101490.03
2022-12-19T02:09:45.613Z,101484.88
2022-12-19T02:12:12.955Z,101487.44
2022-12-19T02:14:40.313Z,101483.09
2022-12-19T02:17:21.274Z,101464.19
2022-12-19T02:20:05.016Z,101465.81
2022-12-19T02:22:43.346Z,101468.38
2022-12-19T02:25:35.345Z,101444.38
2022-12-19T02:28:26.294Z,101435.84
2022-12-19T02:31:02.180Z,101416.13
2022-12-19T02:33:40.772Z,101409.25
2022-12-19T02:36:15.171Z,101415.25
2022-12-19T02:38:46.130Z,101410.91
2022-12-19T02:41:43.510Z,101404.94
2022-12-19T02:44:21.852Z,101405.75
2022-12-19T02:46:50.449Z,101396.28
2022-12-19T02:49:22.415Z,101414.22
2022-12-19T02:51:57.748Z,101398.84
2022-12-19T02:54:25.120Z,101406.44
2022-12-19T02:56:59.255Z,101397.94
2022-12-19T02:59:35.635Z,101400.41
2022-12-19T03:02:16.968Z,101392.66
2022-12-19T03:05:05.349Z,101396.84
2022-12-19T03:07:55.589Z,101418.97
2022-12-19T03:10:42.986Z,101403.63
2022-12-19T03:13:18.834Z,101411.41
2022-12-19T03:15:46.100Z,101408.81
2022-12-19T03:18:13.205Z,101412.25
2022-12-19T03:20:44.946Z,101401.09
2022-12-19T03:23:12.887Z,101410.50
2022-12-19T03:25:43.183Z,101406.91
2022-12-19T03:28:20.595Z,101409.38
2022-12-19T03:30:47.752Z,101388.88
2022-12-19T03:33:18.856Z,101394.81
2022-12-19T03:35:47.255Z,101374.28
2022-12-19T03:38:15.340Z,101383.59
2022-12-19T03:40:45.913Z,101387.91
2022-12-19T03:43:16.371Z,101386.09
2022-12-19T03:46:04.960Z,101387.00
2022-12-19T03:48:34.657Z,101374.34
2022-12-19T03:51:05.722Z,101368.34
2022-12-19T03:53:40.849Z,101376.06
2022-12-19T03:56:19.813Z,101368.34
2022-12-19T03:58:52.444Z,101371.72
2022-12-19T04:01:19.433Z,101366.53
2022-12-19T04:03:49.232Z,101370.72
2022-12-19T04:06:17.147Z,101369.88
2022-12-19T04:08:44.455Z,101369.91
2022-12-19T04:11:16.475Z,101369.81
2022-12-19T04:13:53.461Z,101353.47
2022-12-19T04:16:32.829Z,101366.25
2022-12-19T04:19:05.537Z,101358.63
2022-12-19T04:21:39.386Z,101365.44
2022-12-19T04:24:16.381Z,101366.25
2022-12-19T04:26:47.279Z,101367.03
2022-12-19T04:29:15.189Z,101363.53
2022-12-19T04:31:42.886Z,101373.81
2022-12-19T04:34:09.356Z,101365.25
2022-12-19T04:36:36.026Z,101360.94
2022-12-19T04:39:02.538Z,101367.81
2022-12-19T04:41:29.051Z,101358.31
2022-12-19T04:43:55.504Z,101359.97
2022-12-19T04:46:22.054Z,101346.28
2022-12-19T04:48:48.524Z,101363.34
2022-12-19T04:51:16.150Z,101367.53
2022-12-19T04:53:42.645Z,101351.44
2022-12-19T04:56:09.707Z,101346.19
2022-12-19T04:58:36.175Z,101340.19
2022-12-19T05:01:08.039Z,101345.31
2022-12-19T05:03:35.883Z,101343.53
2022-12-19T05:06:08.071Z,101339.94
2022-12-19T05:08:35.444Z,101341.56
2022-12-19T05:11:02.860Z,101338.03
2022-12-19T05:13:30.229Z,101329.50
2022-12-19T05:16:00.962Z,101327.72
2022-12-19T05:18:28.032Z,101331.22
2022-12-19T05:20:54.625Z,101320.00
2022-12-19T05:23:21.578Z,101315.66
2022-12-19T05:25:48.437Z,101331.03
2022-12-19T05:28:15.685Z,101347.25
2022-12-19T05:30:43.962Z,101343.69
2022-12-19T05:33:13.120Z,101340.22
2022-12-19T05:35:40.059Z,101350.44
2022-12-19T05:38:06.777Z,101346.91
2022-12-19T05:40:33.359Z,101359.66
2022-12-19T05:42:59.832Z,101353.56
2022-12-19T05:45:26.312Z,101359.47
2022-12-19T05:47:52.733Z,101340.53
2022-12-19T05:50:19.232Z,101323.44
2022-12-19T05:52:45.736Z,101322.56
2022-12-19T05:55:12.692Z,101329.41
2022-12-19T05:57:39.145Z,101324.38
2022-12-19T06:00:06.313Z,101340.72
2022-12-19T06:02:33.670Z,101332.13
2022-12-19T06:05:00.310Z,101332.13
2022-12-19T06:07:26.799Z,101337.13
2022-12-19T06:09:53.250Z,101325.09
2022-12-19T06:12:19.709Z,101331.81
2022-12-19T06:14:46.163Z,101331.69
2022-12-19T06:17:12.646Z,101335.84
2022-12-19T06:19:39.144Z,101321.25
2022-12-19T06:22:05.727Z,101334.03
2022-12-19T06:24:32.708Z,101326.44
2022-12-19T06:27:02.103Z,101323.97
2022-12-19T06:29:28.596Z,101335.75
2022-12-19T06:31:55.290Z,101339.13
2022-12-19T06:34:55.167Z,101328.81
2022-12-19T06:37:08.903Z,101334.91
2022-12-19T06:39:35.436Z,101343.41
2022-12-19T06:42:20.557Z,101336.59
2022-12-19T06:44:46.984Z,101336.41
2022-12-19T06:47:13.515Z,101345.84
2022-12-19T06:49:40.065Z,101337.19
2022-12-19T06:52:09.259Z,101340.53
2022-12-19T06:54:35.870Z,101332.72
2022-12-19T06:57:02.650Z,101332.66
2022-12-19T06:59:29.105Z,101330.75
2022-12-19T07:02:27.267Z,101328.94
2022-12-19T07:05:03.882Z,101326.19
2022-12-19T07:07:30.738Z,101323.47
2022-12-19T07:09:57.230Z,101328.50
2022-12-19T07:12:23.702Z,101324.03
2022-12-19T07:14:53.379Z,101323.84
2022-12-19T07:17:21.590Z,101325.44
2022-12-19T07:19:49.531Z,101335.63
2022-12-19T07:22:16.199Z,101333.72
2022-12-19T07:24:42.642Z,101330.97
2022-12-19T07:27:09.296Z,101339.53
2022-12-19T07:29:35.748Z,101342.00
2022-12-19T07:32:02.311Z,101339.25
2022-12-19T07:34:30.040Z,101345.09
2022-12-19T07:36:56.861Z,101343.28
2022-12-19T07:39:23.453Z,101351.78
2022-12-19T07:41:50.036Z,101343.09
2022-12-19T07:44:16.546Z,101340.41
2022-12-19T07:46:43.353Z,101343.81
2022-12-19T07:49:09.833Z,101347.13
2022-12-19T07:51:36.370Z,101340.13
2022-12-19T07:54:03.366Z,101339.19
2022-12-19T07:56:29.933Z,101340.81
2022-12-19T07:58:56.689Z,101342.41
2022-12-19T08:01:23.208Z,101349.09
2022-12-19T08:03:49.807Z,101341.28
2022-12-19T08:06:16.358Z,101338.72
2022-12-19T08:08:42.852Z,101348.84
2022-12-19T08:11:16.858Z,101347.00
2022-12-19T08:13:46.653Z,101359.84
2022-12-19T08:16:13.758Z,101352.84
2022-12-19T08:18:40.595Z,101356.25
2022-12-19T08:21:08.404Z,101347.56
2022-12-19T08:23:35.050Z,101349.13
2022-12-19T08:26:03.891Z,101350.72
2022-12-19T08:28:31.968Z,101347.22
2022-12-19T08:31:05.321Z,101351.41
2022-12-19T08:33:31.881Z,101347.78
2022-12-19T08:35:59.237Z,101351.97
2022-12-19T08:38:25.696Z,101350.13
2022-12-19T08:40:54.357Z,101351.00
2022-12-19T08:43:21.440Z,101340.63
2022-12-19T08:45:50.005Z,101339.59
2022-12-19T08:48:17.366Z,101338.59
2022-12-19T08:50:55.223Z,101338.50
2022-12-19T08:53:26.296Z,101333.97
2022-12-19T08:56:01.794Z,101345.94
2022-12-19T08:58:29.844Z,101339.09
2022-12-19T09:01:05.940Z,101333.13
2022-12-19T09:03:42.726Z,101333.94
2022-12-19T09:06:20.125Z,101334.88
2022-12-19T09:08:46.911Z,101336.47
2022-12-19T09:11:18.383Z,101328.78
2022-12-19T09:13:46.553Z,101313.28
2022-12-19T09:16:14.224Z,101338.09
2022-12-19T09:18:46.605Z,101336.22
2022-12-19T09:21:15.411Z,101332.81
2022-12-19T09:23:43.263Z,101332.78
2022-12-19T09:26:13.372Z,101332.66
2022-12-19T09:28:41.453Z,101333.59
2022-12-19T09:31:11.943Z,101343.94
2022-12-19T09:33:43.408Z,101344.78
2022-12-19T09:36:19.690Z,101337.97
2022-12-19T09:38:47.066Z,101334.53
2022-12-19T09:41:13.523Z,101338.81
2022-12-19T09:43:58.317Z,101355.84
2022-12-19T09:46:35.815Z,101354.88
2022-12-19T09:49:03.148Z,101357.41
2022-12-19T09:51:36.678Z,101347.06
2022-12-19T09:54:15.965Z,101361.66
2022-12-19T09:56:45.510Z,101354.66
2022-12-19T09:59:39.943Z,101357.22
2022-12-19T10:02:23.082Z,101364.19
2022-12-19T10:04:56.661Z,101356.44
2022-12-19T10:08:05.028Z,101368.59
2022-12-19T10:12:39.582Z,101356.50
2022-12-19T10:13:51.474Z,101357.28
2022-12-19T10:16:56.312Z,101357.06
2022-12-19T10:19:46.328Z,101362.19
2022-12-19T10:22:28.133Z,101356.84
2022-12-19T10:25:12.069Z,101354.13
2022-12-19T10:27:59.889Z,101355.63
2022-12-19T10:30:31.486Z,101356.38
2022-12-19T10:33:38.735Z,101342.38
2022-12-19T10:36:10.796Z,101338.84
2022-12-19T10:39:03.979Z,101344.66
2022-12-19T10:41:32.353Z,101330.00
2022-12-19T10:44:10.130Z,101334.25
2022-12-19T10:46:49.366Z,101318.94
2022-12-19T10:49:27.062Z,101325.69
2022-12-19T10:52:02.533Z,101325.69
2022-12-19T10:54:38.014Z,101324.06
2022-12-19T10:57:26.963Z,101310.47
2022-12-19T11:00:09.696Z,101322.56
2022-12-19T11:02:39.041Z,101332.75
2022-12-19T11:05:39.821Z,101329.44
2022-12-19T11:08:06.238Z,101339.78
2022-12-19T11:12:33.593Z,101338.34
2022-12-19T11:19:34.858Z,101323.69
2022-12-19T11:21:37.127Z,101325.53
2022-12-19T11:29:31.090Z,101316.59
2022-12-19T11:29:54.186Z,101314.97
2022-12-19T11:30:07.050Z,101316.34
2022-12-19T11:30:46.773Z,101321.66
2022-12-19T11:34:21.225Z,101316.72
2022-12-19T11:37:11.829Z,101313.22
2022-12-19T11:39:50.142Z,101331.16
2022-12-19T11:42:37.750Z,101327.59
2022-12-19T11:45:41.241Z,101328.38
2022-12-19T11:48:19.925Z,101335.88
2022-12-19T11:51:14.293Z,101325.50
2022-12-19T11:54:07.615Z,101334.78
2022-12-19T11:56:34.868Z,101318.41
2022-12-19T11:59:11.666Z,101315.72
2022-12-19T12:02:07.102Z,101314.59
2022-12-19T12:05:11.249Z,101301.41
2022-12-19T12:08:42.799Z,101310.41
2022-12-19T12:13:32.040Z,101294.56
2022-12-19T12:21:38.693Z,101294.22
2022-12-19T12:27:56.580Z,101286.16
2022-12-19T12:31:07.269Z,101284.84
2022-12-19T12:31:42.240Z,101272.41
2022-12-19T12:31:58.267Z,101285.97
2022-12-19T12:32:04.671Z,101282.75
2022-12-19T12:35:50.036Z,101274.84
2022-12-19T12:38:27.543Z,101270.31
2022-12-19T12:41:48.116Z,101262.53
2022-12-19T12:44:15.287Z,101265.13
2022-12-19T12:46:52.035Z,101259.88
2022-12-19T12:49:32.825Z,101270.88
2022-12-19T12:52:01.609Z,101259.31
2022-12-19T12:54:34.236Z,101258.47
2022-12-19T12:57:01.714Z,101264.41
2022-12-19T12:59:30.255Z,101270.31
2022-12-19T13:02:06.580Z,101284.66
2022-12-19T13:04:42.092Z,101265.81
2022-12-19T13:07:25.073Z,101263.13
2022-12-19T13:10:13.335Z,101268.19
2022-12-19T13:13:01.608Z,101253.88
2022-12-19T13:15:28.085Z,101242.59
2022-12-19T13:17:54.480Z,101248.50
2022-12-19T13:20:23.888Z,101230.38
2022-12-19T13:23:00.262Z,101235.44
2022-12-19T13:25:26.758Z,101245.91
2022-12-19T13:28:22.275Z,101247.56
2022-12-19T13:31:19.337Z,101241.69
2022-12-19T13:33:56.230Z,101237.50
2022-12-19T13:39:58.423Z,101243.31
2022-12-19T13:40:11.005Z,101253.19
2022-12-19T13:43:10.360Z,101244.56
2022-12-19T13:45:40.679Z,101239.38
2022-12-19T13:48:15.421Z,101236.09
2022-12-19T13:50:43.097Z,101230.00
2022-12-19T13:53:26.168Z,101234.19
2022-12-19T13:56:00.071Z,101224.06
2022-12-19T13:58:30.667Z,101212.22
2022-12-19T14:01:02.852Z,101194.31
2022-12-19T14:03:40.766Z,101196.75
2022-12-19T14:06:21.322Z,101199.91
2022-12-19T14:09:37.452Z,101198.09
2022-12-19T14:13:41.380Z,101188.44
2022-12-19T14:14:46.823Z,101202.91
2022-12-19T14:17:14.577Z,101190.59
2022-12-19T14:19:47.294Z,101194.78
2022-12-19T14:22:26.058Z,101189.59
2022-12-19T14:25:45.114Z,101201.56
2022-12-19T14:28:17.606Z,101194.66
2022-12-19T14:30:54.612Z,101185.13
2022-12-19T14:33:43.818Z,101191.09
2022-12-19T14:36:25.634Z,101181.47
2022-12-19T14:39:25.330Z,101167.47
2022-12-19T14:42:03.893Z,101178.66
2022-12-19T14:52:08.217Z,101183.78
2022-12-19T14:53:51.781Z,101174.19
2022-12-19T14:54:23.411Z,101160.16
2022-12-19T14:54:55.167Z,101157.44
2022-12-19T14:59:02.509Z,101153.16
2022-12-19T15:01:33.925Z,101146.00
2022-12-19T15:04:47.329Z,101151.13
2022-12-19T15:07:07.121Z,101152.72
2022-12-19T15:11:07.709Z,101148.88
2022-12-19T15:14:52.491Z,101137.25
2022-12-19T15:16:24.826Z,101136.25
2022-12-19T15:18:55.233Z,101137.78
2022-12-19T15:21:21.761Z,101136.72
2022-12-19T15:23:48.324Z,101124.34
2022-12-19T15:26:17.446Z,101126.69
2022-12-19T15:28:52.061Z,101123.06
2022-12-19T15:31:26.254Z,101137.75
2022-12-19T15:34:23.745Z,101135.09
2022-12-19T15:36:39.395Z,101123.88
2022-12-19T15:39:05.890Z,101132.41
2022-12-19T15:41:32.547Z,101135.78
2022-12-19T15:44:04.008Z,101131.19
2022-12-19T15:46:32.310Z,101133.69
2022-12-19T15:48:58.884Z,101142.34
2022-12-19T15:51:26.478Z,101150.13
2022-12-19T15:53:53.542Z,101149.31
2022-12-19T15:56:28.775Z,101151.16
2022-12-19T15:58:57.336Z,101150.41
2022-12-19T16:01:24.562Z,101150.47
2022-12-19T16:03:51.380Z,101153.31
2022-12-19T16:06:18.562Z,101164.59
2022-12-19T16:08:45.126Z,101161.16
2022-12-19T16:11:21.447Z,101156.81
2022-12-19T16:13:55.618Z,101145.38
2022-12-19T16:16:22.900Z,101146.66
2022-12-19T16:18:49.516Z,101139.41
2022-12-19T16:21:27.370Z,101120.56
2022-12-19T16:23:57.957Z,101132.84
2022-12-19T16:26:34.588Z,101143.47
2022-12-19T16:29:02.112Z,101151.41
2022-12-19T16:31:28.916Z,101156.53
2022-12-19T16:33:55.582Z,101152.31
2022-12-19T16:36:22.324Z,101141.34
2022-12-19T16:38:48.895Z,101129.41
2022-12-19T16:41:19.383Z,101131.97
2022-12-19T16:43:46.036Z,101131.97
2022-12-19T16:46:19.089Z,101125.19
2022-12-19T16:48:45.832Z,101124.66
2022-12-19T16:51:21.144Z,101137.78
2022-12-19T16:53:50.593Z,101149.22
2022-12-19T16:56:55.538Z,101148.59
2022-12-19T16:59:34.131Z,101159.66
2022-12-19T17:02:00.914Z,101164.91
2022-12-19T17:04:29.068Z,101176.06
2022-12-19T17:06:56.364Z,101176.88
2022-12-19T17:09:24.597Z,101182.28
2022-12-19T17:11:55.798Z,101188.09
2022-12-19T17:14:27.102Z,101183.97
2022-12-19T17:16:55.379Z,101169.16
2022-12-19T17:19:33.744Z,101174.22
2022-12-19T17:22:00.403Z,101166.44
2022-12-19T17:24:27.219Z,101181.84
2022-12-19T17:26:53.712Z,101176.59
2022-12-19T17:29:20.199Z,101169.41
2022-12-19T17:31:46.745Z,101166.75
2022-12-19T17:34:21.868Z,101161.25
2022-12-19T17:36:48.347Z,101157.69
2022-12-19T17:39:20.627Z,101162.69
2022-12-19T17:41:48.438Z,101176.47
2022-12-19T17:44:15.341Z,101173.88
2022-12-19T17:46:42.421Z,101176.47
2022-12-19T17:49:18.228Z,101177.28
2022-12-19T17:51:50.196Z,101178.03
2022-12-19T17:54:16.740Z,101175.50
2022-12-19T17:56:43.188Z,101186.78
2022-12-19T17:59:09.732Z,101186.84
2022-12-19T18:01:38.419Z,101191.22
2022-12-19T18:04:05.059Z,101185.34
2022-12-19T18:06:31.591Z,101187.09
2022-12-19T18:08:58.141Z,101169.03
2022-12-19T18:11:26.006Z,101165.88
2022-12-19T18:13:53.490Z,101170.25
2022-12-19T18:16:24.877Z,101160.88
2022-12-19T18:18:51.635Z,101154.84
2022-12-19T18:21:20.591Z,101143.88
2022-12-19T18:23:49.009Z,101167.50
2022-12-19T18:26:15.546Z,101177.03
2022-12-19T18:28:42.426Z,101170.25
2022-12-19T18:31:20.773Z,101170.47
2022-12-19T18:33:49.949Z,101167.81
2022-12-19T18:36:25.504Z,101175.81
2022-12-19T18:38:52.959Z,101164.44
2022-12-19T18:41:20.481Z,101168.94
2022-12-19T18:43:47.126Z,101170.63
2022-12-19T18:46:16.345Z,101162.00
2022-12-19T18:48:44.504Z,101167.03
2022-12-19T18:51:16.566Z,101165.22
2022-12-19T18:53:44.347Z,101170.31
2022-12-19T18:56:11.309Z,101164.22
2022-12-19T18:58:37.999Z,101167.72
2022-12-19T19:01:07.064Z,101164.16
2022-12-19T19:03:39.302Z,101166.75
2022-12-19T19:06:14.156Z,101171.84
2022-12-19T19:08:40.692Z,101170.03
2022-12-19T19:11:07.431Z,101171.53
2022-12-19T19:13:34.027Z,101170.66
2022-12-19T19:16:03.774Z,101172.38
2022-12-19T19:18:35.259Z,101173.31
2022-12-19T19:21:02.375Z,101173.25
2022-12-19T19:23:39.127Z,101178.78
2022-12-19T19:26:06.221Z,101162.25
2022-12-19T19:28:32.786Z,101183.84
2022-12-19T19:31:00.593Z,101183.97
2022-12-19T19:33:33.785Z,101196.00
2022-12-19T19:36:12.142Z,101192.44
2022-12-19T19:38:42.562Z,101205.34
2022-12-19T19:41:09.150Z,101189.63
2022-12-19T19:43:35.804Z,101218.75
2022-12-19T19:46:02.969Z,101200.59
2022-12-19T19:48:30.374Z,101183.22
2022-12-19T19:50:57.467Z,101188.00
2022-12-19T19:53:24.011Z,101196.47
2022-12-19T19:55:58.089Z,101192.03
2022-12-19T19:58:24.640Z,101202.94
2022-12-19T20:00:51.274Z,101186.03
2022-12-19T20:03:22.514Z,101181.59
2022-12-19T20:05:50.138Z,101192.59
2022-12-19T20:08:16.722Z,101193.09
2022-12-19T20:10:43.146Z,101186.31
2022-12-19T20:13:11.127Z,101191.50
2022-12-19T20:15:39.163Z,101201.84
2022-12-19T20:18:08.560Z,101198.16
2022-12-19T20:20:35.159Z,101199.09
2022-12-19T20:23:02.507Z,101170.91
2022-12-19T20:25:28.941Z,101172.59
2022-12-19T20:27:55.484Z,101170.91
2022-12-19T20:30:21.972Z,101169.88
2022-12-19T20:32:48.458Z,101170.91
2022-12-19T20:35:16.098Z,101175.94
2022-12-19T20:37:42.962Z,101180.00
2022-12-19T20:40:10.093Z,101182.41
2022-12-19T20:42:36.579Z,101194.22
2022-12-19T20:45:03.653Z,101184.69
2022-12-19T20:47:30.426Z,101184.50
2022-12-19T20:49:56.905Z,101179.69
2022-12-19T20:52:23.512Z,101173.22
2022-12-19T20:54:50.441Z,101164.88
2022-12-19T20:57:17.083Z,101167.34
2022-12-19T20:59:43.811Z,101173.41
2022-12-19T21:02:11.451Z,101169.63
2022-12-19T21:04:38.184Z,101167.41
2022-12-19T21:07:04.805Z,101169.75
2022-12-19T21:09:31.386Z,101172.22
2022-12-19T21:11:57.908Z,101170.34
2022-12-19T21:14:24.446Z,101184.00
2022-12-19T21:16:51.049Z,101184.75
2022-12-19T21:19:17.576Z,101187.25
2022-12-19T21:21:44.614Z,101178.59
2022-12-19T21:24:11.189Z,101182.75
2022-12-19T21:26:37.814Z,101175.75
2022-12-19T21:29:05.032Z,101174.00
2022-12-19T21:31:31.709Z,101177.97
2022-12-19T21:34:01.472Z,101181.72
2022-12-19T21:36:29.969Z,101172.84
2022-12-19T21:38:59.313Z,101171.91
2022-12-19T21:41:26.409Z,101172.03
2022-12-19T21:43:54.993Z,101173.78
2022-12-19T21:46:27.019Z,101181.31
2022-12-19T21:48:55.287Z,101184.25
2022-12-19T21:51:25.225Z,101181.84
2022-12-19T21:53:56.583Z,101183.00
2022-12-19T21:56:31.989Z,101159.38
2022-12-19T21:59:03.866Z,101165.25
2022-12-19T22:01:31.230Z,101169.50
2022-12-19T22:04:00.670Z,101169.41
2022-12-19T22:06:31.773Z,101170.13
2022-12-19T22:08:59.326Z,101176.94
2022-12-19T22:11:26.358Z,101174.19
2022-12-19T22:13:53.402Z,101168.00
2022-12-19T22:16:20.264Z,101175.69
2022-12-19T22:18:46.812Z,101184.25
2022-12-19T22:21:15.041Z,101179.63
2022-12-19T22:23:42.295Z,101178.38
2022-12-19T22:26:10.944Z,101176.47
2022-12-19T22:28:39.613Z,101172.72
2022-12-19T22:31:26.198Z,101165.59
2022-12-19T22:33:56.300Z,101161.69
2022-12-19T22:36:28.425Z,101154.56
2022-12-19T22:38:57.004Z,101145.56
2022-12-19T22:41:24.347Z,101149.06
2022-12-19T22:43:51.746Z,101151.22
2022-12-19T22:46:21.074Z,101155.69
2022-12-19T22:48:50.141Z,101145.50
2022-12-19T22:51:19.854Z,101151.69
2022-12-19T22:53:47.265Z,101151.13
2022-12-19T22:56:16.696Z,101146.13
2022-12-19T22:58:45.083Z,101135.00
2022-12-19T23:01:26.571Z,101138.88
2022-12-19T23:03:55.682Z,101131.41
2022-12-19T23:06:24.055Z,101126.91
2022-12-19T23:08:50.531Z,101113.72
2022-12-19T23:11:23.439Z,101109.63
2022-12-19T23:13:50.341Z,101104.41
2022-12-19T23:16:17.569Z,101105.34
2022-12-19T23:18:44.663Z,101096.91
2022-12-19T23:21:20.636Z,101092.97
2022-12-19T23:23:49.502Z,101104.16
2022-12-19T23:26:18.331Z,101090.25
2022-12-19T23:28:49.616Z,101100.72
2022-12-19T23:31:16.230Z,101088.00
2022-12-19T23:33:42.762Z,101092.41
2022-12-19T23:36:10.637Z,101083.00
2022-12-19T23:38:37.175Z,101091.91
2022-12-19T23:41:06.913Z,101089.28
2022-12-19T23:43:35.495Z,101082.38
2022-12-19T23:46:07.001Z,101085.72
2022-12-19T23:48:33.904Z,101089.19
2022-12-19T23:51:02.574Z,101070.25
2022-12-19T23:53:31.020Z,101065.84
2022-12-19T23:55:57.792Z,101068.47
2022-12-19T23:58:25.006Z,101064.66
